sensor_id;sensor_type;location;lat;lon;timestamp;P1;durP1;ratioP1;P2;durP2;ratioP2
64094;SDS011;50353;51.420;5.682;2024-02-21T00:00:43;10.55;;;4.05;;
64094;SDS011;50353;51.420;5.682;2024-02-21T00:03:09;13.98;;;3.80;;
64094;SDS011;50353;51.420;5.682;2024-02-21T00:05:34;10.98;;;3.55;;
64094;SDS011;50353;51.420;5.682;2024-02-21T00:08:00;13.63;;;4.07;;
64094;SDS011;50353;51.420;5.682;2024-02-21T00:10:25;11.30;;;3.65;;
64094;SDS011;50353;51.420;5.682;2024-02-21T00:12:51;11.73;;;3.88;;
64094;SDS011;50353;51.420;5.682;2024-02-21T00:15:16;13.48;;;3.92;;
64094;SDS011;50353;51.420;5.682;2024-02-21T00:17:43;10.00;;;4.10;;
64094;SDS011;50353;51.420;5.682;2024-02-21T00:20:15;12.25;;;4.40;;
64094;SDS011;50353;51.420;5.682;2024-02-21T00:22:40;14.23;;;3.85;;
64094;SDS011;50353;51.420;5.682;2024-02-21T00:25:06;10.32;;;3.05;;
64094;SDS011;50353;51.420;5.682;2024-02-21T00:27:32;8.90;;;3.28;;
64094;SDS011;50353;51.420;5.682;2024-02-21T00:29:57;6.68;;;2.25;;
64094;SDS011;50353;51.420;5.682;2024-02-21T00:32:22;11.30;;;4.05;;
64094;SDS011;50353;51.420;5.682;2024-02-21T00:34:48;10.38;;;2.58;;
64094;SDS011;50353;51.420;5.682;2024-02-21T00:37:13;11.20;;;3.13;;
64094;SDS011;50353;51.420;5.682;2024-02-21T00:39:39;11.27;;;3.80;;
64094;SDS011;50353;51.420;5.682;2024-02-21T00:42:04;5.07;;;2.97;;
64094;SDS011;50353;51.420;5.682;2024-02-21T00:44:30;9.57;;;3.70;;
64094;SDS011;50353;51.420;5.682;2024-02-21T00:46:55;15.27;;;3.80;;
64094;SDS011;50353;51.420;5.682;2024-02-21T00:49:20;9.88;;;3.55;;
64094;SDS011;50353;51.420;5.682;2024-02-21T00:51:46;9.88;;;3.50;;
64094;SDS011;50353;51.420;5.682;2024-02-21T00:54:12;8.43;;;2.13;;
64094;SDS011;50353;51.420;5.682;2024-02-21T00:56:38;19.38;;;3.72;;
64094;SDS011;50353;51.420;5.682;2024-02-21T00:59:04;7.10;;;2.80;;
64094;SDS011;50353;51.420;5.682;2024-02-21T01:01:29;7.72;;;2.30;;
64094;SDS011;50353;51.420;5.682;2024-02-21T01:03:55;9.38;;;2.90;;
64094;SDS011;50353;51.420;5.682;2024-02-21T01:06:20;10.98;;;4.13;;
64094;SDS011;50353;51.420;5.682;2024-02-21T01:08:46;10.57;;;3.42;;
64094;SDS011;50353;51.420;5.682;2024-02-21T01:11:13;11.02;;;3.15;;
64094;SDS011;50353;51.420;5.682;2024-02-21T01:13:39;9.10;;;2.80;;
64094;SDS011;50353;51.420;5.682;2024-02-21T01:16:04;8.57;;;2.30;;
64094;SDS011;50353;51.420;5.682;2024-02-21T01:18:31;6.22;;;2.50;;
64094;SDS011;50353;51.420;5.682;2024-02-21T01:21:00;9.43;;;3.22;;
64094;SDS011;50353;51.420;5.682;2024-02-21T01:23:25;9.57;;;2.35;;
64094;SDS011;50353;51.420;5.682;2024-02-21T01:25:51;7.53;;;2.25;;
64094;SDS011;50353;51.420;5.682;2024-02-21T01:28:17;10.27;;;2.42;;
64094;SDS011;50353;51.420;5.682;2024-02-21T01:30:43;6.63;;;2.33;;
64094;SDS011;50353;51.420;5.682;2024-02-21T01:33:09;9.00;;;2.58;;
64094;SDS011;50353;51.420;5.682;2024-02-21T01:35:35;8.77;;;2.92;;
64094;SDS011;50353;51.420;5.682;2024-02-21T01:38:02;7.90;;;2.58;;
64094;SDS011;50353;51.420;5.682;2024-02-21T01:40:28;8.13;;;2.63;;
64094;SDS011;50353;51.420;5.682;2024-02-21T01:42:55;4.07;;;2.63;;
64094;SDS011;50353;51.420;5.682;2024-02-21T01:45:20;8.23;;;3.38;;
64094;SDS011;50353;51.420;5.682;2024-02-21T01:47:46;8.00;;;3.38;;
64094;SDS011;50353;51.420;5.682;2024-02-21T01:50:13;8.50;;;2.45;;
64094;SDS011;50353;51.420;5.682;2024-02-21T01:52:40;7.97;;;3.20;;
64094;SDS011;50353;51.420;5.682;2024-02-21T01:55:07;6.85;;;2.70;;
64094;SDS011;50353;51.420;5.682;2024-02-21T01:57:33;8.70;;;3.13;;
64094;SDS011;50353;51.420;5.682;2024-02-21T01:59:58;9.35;;;2.95;;
64094;SDS011;50353;51.420;5.682;2024-02-21T02:02:24;10.80;;;3.80;;
64094;SDS011;50353;51.420;5.682;2024-02-21T02:04:50;4.68;;;2.03;;
64094;SDS011;50353;51.420;5.682;2024-02-21T02:07:15;9.75;;;3.05;;
64094;SDS011;50353;51.420;5.682;2024-02-21T02:09:41;11.30;;;2.72;;
64094;SDS011;50353;51.420;5.682;2024-02-21T02:12:07;10.57;;;2.83;;
64094;SDS011;50353;51.420;5.682;2024-02-21T02:14:33;7.45;;;2.75;;
64094;SDS011;50353;51.420;5.682;2024-02-21T02:16:58;10.10;;;2.78;;
64094;SDS011;50353;51.420;5.682;2024-02-21T02:19:24;5.43;;;2.67;;
64094;SDS011;50353;51.420;5.682;2024-02-21T02:21:49;8.13;;;2.80;;
64094;SDS011;50353;51.420;5.682;2024-02-21T02:24:20;9.45;;;3.05;;
64094;SDS011;50353;51.420;5.682;2024-02-21T02:26:49;5.05;;;2.63;;
64094;SDS011;50353;51.420;5.682;2024-02-21T02:29:14;8.73;;;2.67;;
64094;SDS011;50353;51.420;5.682;2024-02-21T02:31:39;9.05;;;2.70;;
64094;SDS011;50353;51.420;5.682;2024-02-21T02:34:05;7.32;;;2.60;;
64094;SDS011;50353;51.420;5.682;2024-02-21T02:36:33;11.20;;;2.75;;
64094;SDS011;50353;51.420;5.682;2024-02-21T02:38:59;9.13;;;2.83;;
64094;SDS011;50353;51.420;5.682;2024-02-21T02:41:25;7.90;;;3.38;;
64094;SDS011;50353;51.420;5.682;2024-02-21T02:43:50;6.05;;;2.50;;
64094;SDS011;50353;51.420;5.682;2024-02-21T02:46:15;6.68;;;2.75;;
64094;SDS011;50353;51.420;5.682;2024-02-21T02:48:41;8.70;;;2.90;;
64094;SDS011;50353;51.420;5.682;2024-02-21T02:51:06;9.75;;;3.00;;
64094;SDS011;50353;51.420;5.682;2024-02-21T02:53:32;7.25;;;3.33;;
64094;SDS011;50353;51.420;5.682;2024-02-21T02:55:57;6.80;;;2.65;;
64094;SDS011;50353;51.420;5.682;2024-02-21T02:58:23;9.82;;;3.08;;
64094;SDS011;50353;51.420;5.682;2024-02-21T03:00:48;8.30;;;3.60;;
64094;SDS011;50353;51.420;5.682;2024-02-21T03:03:13;9.57;;;3.63;;
64094;SDS011;50353;51.420;5.682;2024-02-21T03:05:39;4.88;;;2.88;;
64094;SDS011;50353;51.420;5.682;2024-02-21T03:08:04;9.23;;;3.30;;
64094;SDS011;50353;51.420;5.682;2024-02-21T03:10:35;11.85;;;3.83;;
64094;SDS011;50353;51.420;5.682;2024-02-21T03:13:00;8.15;;;3.47;;
64094;SDS011;50353;51.420;5.682;2024-02-21T03:15:26;8.65;;;3.08;;
64094;SDS011;50353;51.420;5.682;2024-02-21T03:17:51;11.45;;;3.35;;
64094;SDS011;50353;51.420;5.682;2024-02-21T03:20:17;8.88;;;3.10;;
64094;SDS011;50353;51.420;5.682;2024-02-21T03:22:44;8.73;;;4.43;;
64094;SDS011;50353;51.420;5.682;2024-02-21T03:25:10;7.07;;;3.17;;
64094;SDS011;50353;51.420;5.682;2024-02-21T03:27:35;10.10;;;3.15;;
64094;SDS011;50353;51.420;5.682;2024-02-21T03:30:01;7.07;;;3.70;;
64094;SDS011;50353;51.420;5.682;2024-02-21T03:32:29;10.88;;;4.32;;
64094;SDS011;50353;51.420;5.682;2024-02-21T03:37:20;8.90;;;2.85;;
64094;SDS011;50353;51.420;5.682;2024-02-21T03:39:45;7.93;;;3.90;;
64094;SDS011;50353;51.420;5.682;2024-02-21T03:42:11;8.82;;;4.07;;
64094;SDS011;50353;51.420;5.682;2024-02-21T03:44:36;8.07;;;3.53;;
64094;SDS011;50353;51.420;5.682;2024-02-21T03:47:02;8.40;;;3.42;;
64094;SDS011;50353;51.420;5.682;2024-02-21T03:49:27;8.75;;;3.92;;
64094;SDS011;50353;51.420;5.682;2024-02-21T03:51:53;12.15;;;4.47;;
64094;SDS011;50353;51.420;5.682;2024-02-21T03:54:19;12.68;;;3.75;;
64094;SDS011;50353;51.420;5.682;2024-02-21T03:56:45;8.60;;;3.67;;
64094;SDS011;50353;51.420;5.682;2024-02-21T04:04:03;9.88;;;3.97;;
64094;SDS011;50353;51.420;5.682;2024-02-21T04:06:29;12.15;;;4.57;;
64094;SDS011;50353;51.420;5.682;2024-02-21T04:08:54;8.90;;;4.07;;
64094;SDS011;50353;51.420;5.682;2024-02-21T04:11:20;10.55;;;3.88;;
64094;SDS011;50353;51.420;5.682;2024-02-21T04:13:45;8.15;;;3.70;;
64094;SDS011;50353;51.420;5.682;2024-02-21T04:16:13;14.35;;;4.38;;
64094;SDS011;50353;51.420;5.682;2024-02-21T04:18:39;7.05;;;3.83;;
64094;SDS011;50353;51.420;5.682;2024-02-21T04:21:07;10.18;;;4.57;;
64094;SDS011;50353;51.420;5.682;2024-02-21T04:23:33;10.07;;;4.13;;
64094;SDS011;50353;51.420;5.682;2024-02-21T04:25:58;8.95;;;3.72;;
64094;SDS011;50353;51.420;5.682;2024-02-21T04:28:24;12.48;;;4.45;;
64094;SDS011;50353;51.420;5.682;2024-02-21T04:30:49;10.50;;;4.22;;
64094;SDS011;50353;51.420;5.682;2024-02-21T04:33:16;8.68;;;3.85;;
64094;SDS011;50353;51.420;5.682;2024-02-21T04:35:41;14.68;;;4.22;;
64094;SDS011;50353;51.420;5.682;2024-02-21T04:38:07;8.18;;;4.18;;
64094;SDS011;50353;51.420;5.682;2024-02-21T04:40:32;10.68;;;3.97;;
64094;SDS011;50353;51.420;5.682;2024-02-21T04:42:58;11.90;;;4.43;;
64094;SDS011;50353;51.420;5.682;2024-02-21T04:45:23;7.35;;;3.95;;
64094;SDS011;50353;51.420;5.682;2024-02-21T04:47:49;14.68;;;3.78;;
64094;SDS011;50353;51.420;5.682;2024-02-21T04:50:14;14.45;;;4.40;;
64094;SDS011;50353;51.420;5.682;2024-02-21T04:52:39;10.50;;;3.85;;
64094;SDS011;50353;51.420;5.682;2024-02-21T04:55:05;7.65;;;3.20;;
64094;SDS011;50353;51.420;5.682;2024-02-21T04:57:31;10.32;;;4.18;;
64094;SDS011;50353;51.420;5.682;2024-02-21T04:59:57;8.60;;;3.65;;
64094;SDS011;50353;51.420;5.682;2024-02-21T05:02:22;9.85;;;3.95;;
64094;SDS011;50353;51.420;5.682;2024-02-21T05:04:49;11.60;;;3.70;;
64094;SDS011;50353;51.420;5.682;2024-02-21T05:07:15;10.25;;;4.07;;
64094;SDS011;50353;51.420;5.682;2024-02-21T05:09:44;8.77;;;3.88;;
64094;SDS011;50353;51.420;5.682;2024-02-21T05:12:09;10.18;;;4.68;;
64094;SDS011;50353;51.420;5.682;2024-02-21T05:14:35;6.18;;;3.15;;
64094;SDS011;50353;51.420;5.682;2024-02-21T05:17:00;10.25;;;3.83;;
64094;SDS011;50353;51.420;5.682;2024-02-21T05:19:26;13.88;;;3.80;;
64094;SDS011;50353;51.420;5.682;2024-02-21T05:21:51;9.80;;;3.33;;
64094;SDS011;50353;51.420;5.682;2024-02-21T05:24:17;9.07;;;3.78;;
64094;SDS011;50353;51.420;5.682;2024-02-21T05:26:42;9.80;;;3.85;;
64094;SDS011;50353;51.420;5.682;2024-02-21T05:29:08;9.75;;;4.18;;
64094;SDS011;50353;51.420;5.682;2024-02-21T05:31:54;7.25;;;3.47;;
64094;SDS011;50353;51.420;5.682;2024-02-21T05:34:19;9.10;;;2.95;;
64094;SDS011;50353;51.420;5.682;2024-02-21T05:36:45;12.48;;;4.05;;
64094;SDS011;50353;51.420;5.682;2024-02-21T05:39:11;11.57;;;3.35;;
64094;SDS011;50353;51.420;5.682;2024-02-21T05:41:38;10.15;;;3.50;;
64094;SDS011;50353;51.420;5.682;2024-02-21T05:44:03;8.77;;;3.20;;
64094;SDS011;50353;51.420;5.682;2024-02-21T05:46:29;9.20;;;3.20;;
64094;SDS011;50353;51.420;5.682;2024-02-21T05:48:55;8.23;;;3.47;;
64094;SDS011;50353;51.420;5.682;2024-02-21T05:51:20;7.95;;;3.88;;
64094;SDS011;50353;51.420;5.682;2024-02-21T05:53:46;6.65;;;2.95;;
64094;SDS011;50353;51.420;5.682;2024-02-21T05:56:12;6.85;;;3.28;;
64094;SDS011;50353;51.420;5.682;2024-02-21T05:58:38;8.75;;;3.65;;
64094;SDS011;50353;51.420;5.682;2024-02-21T06:01:03;6.05;;;4.07;;
64094;SDS011;50353;51.420;5.682;2024-02-21T06:03:29;11.18;;;3.85;;
64094;SDS011;50353;51.420;5.682;2024-02-21T06:05:55;9.90;;;3.50;;
64094;SDS011;50353;51.420;5.682;2024-02-21T06:08:21;7.82;;;3.63;;
64094;SDS011;50353;51.420;5.682;2024-02-21T06:10:47;8.98;;;3.22;;
64094;SDS011;50353;51.420;5.682;2024-02-21T06:13:13;10.85;;;4.55;;
64094;SDS011;50353;51.420;5.682;2024-02-21T06:15:39;9.82;;;3.58;;
64094;SDS011;50353;51.420;5.682;2024-02-21T06:18:05;8.85;;;3.28;;
64094;SDS011;50353;51.420;5.682;2024-02-21T06:20:31;7.28;;;3.80;;
64094;SDS011;50353;51.420;5.682;2024-02-21T06:22:56;7.38;;;3.80;;
64094;SDS011;50353;51.420;5.682;2024-02-21T06:25:22;7.80;;;3.45;;
64094;SDS011;50353;51.420;5.682;2024-02-21T06:27:48;10.93;;;4.38;;
64094;SDS011;50353;51.420;5.682;2024-02-21T06:30:13;9.27;;;4.35;;
64094;SDS011;50353;51.420;5.682;2024-02-21T06:32:39;7.30;;;3.83;;
64094;SDS011;50353;51.420;5.682;2024-02-21T06:35:05;10.77;;;3.70;;
64094;SDS011;50353;51.420;5.682;2024-02-21T06:37:30;9.18;;;3.85;;
64094;SDS011;50353;51.420;5.682;2024-02-21T06:39:57;10.93;;;4.20;;
64094;SDS011;50353;51.420;5.682;2024-02-21T06:42:26;9.32;;;3.83;;
64094;SDS011;50353;51.420;5.682;2024-02-21T06:44:52;12.55;;;3.72;;
64094;SDS011;50353;51.420;5.682;2024-02-21T06:47:17;11.68;;;3.90;;
64094;SDS011;50353;51.420;5.682;2024-02-21T06:49:43;11.40;;;4.18;;
64094;SDS011;50353;51.420;5.682;2024-02-21T06:52:13;11.35;;;4.97;;
64094;SDS011;50353;51.420;5.682;2024-02-21T06:54:42;12.05;;;4.03;;
64094;SDS011;50353;51.420;5.682;2024-02-21T06:57:07;9.13;;;4.40;;
64094;SDS011;50353;51.420;5.682;2024-02-21T06:59:33;11.48;;;4.15;;
64094;SDS011;50353;51.420;5.682;2024-02-21T07:01:58;17.50;;;4.68;;
64094;SDS011;50353;51.420;5.682;2024-02-21T07:04:25;6.57;;;3.75;;
64094;SDS011;50353;51.420;5.682;2024-02-21T07:06:52;12.25;;;4.20;;
64094;SDS011;50353;51.420;5.682;2024-02-21T07:09:18;9.30;;;4.00;;
64094;SDS011;50353;51.420;5.682;2024-02-21T07:11:43;10.43;;;4.68;;
64094;SDS011;50353;51.420;5.682;2024-02-21T07:14:08;8.27;;;3.50;;
64094;SDS011;50353;51.420;5.682;2024-02-21T07:16:34;9.07;;;4.00;;
64094;SDS011;50353;51.420;5.682;2024-02-21T07:19:00;8.25;;;3.92;;
64094;SDS011;50353;51.420;5.682;2024-02-21T07:21:25;11.73;;;4.05;;
64094;SDS011;50353;51.420;5.682;2024-02-21T07:23:51;6.15;;;3.85;;
64094;SDS011;50353;51.420;5.682;2024-02-21T07:26:16;7.88;;;3.50;;
64094;SDS011;50353;51.420;5.682;2024-02-21T07:28:41;10.15;;;4.30;;
64094;SDS011;50353;51.420;5.682;2024-02-21T07:31:07;9.93;;;4.00;;
64094;SDS011;50353;51.420;5.682;2024-02-21T07:33:32;7.70;;;3.08;;
64094;SDS011;50353;51.420;5.682;2024-02-21T07:35:58;8.25;;;3.80;;
64094;SDS011;50353;51.420;5.682;2024-02-21T07:38:23;7.13;;;3.65;;
64094;SDS011;50353;51.420;5.682;2024-02-21T07:40:49;6.90;;;3.55;;
64094;SDS011;50353;51.420;5.682;2024-02-21T07:43:14;7.40;;;3.17;;
64094;SDS011;50353;51.420;5.682;2024-02-21T07:45:39;6.88;;;1.65;;
64094;SDS011;50353;51.420;5.682;2024-02-21T07:48:05;5.15;;;2.65;;
64094;SDS011;50353;51.420;5.682;2024-02-21T07:50:31;5.88;;;2.83;;
64094;SDS011;50353;51.420;5.682;2024-02-21T07:52:56;5.30;;;2.53;;
64094;SDS011;50353;51.420;5.682;2024-02-21T07:55:22;3.53;;;2.08;;
64094;SDS011;50353;51.420;5.682;2024-02-21T07:57:48;6.20;;;2.65;;
64094;SDS011;50353;51.420;5.682;2024-02-21T08:00:16;5.95;;;2.75;;
64094;SDS011;50353;51.420;5.682;2024-02-21T08:02:48;6.63;;;3.17;;
64094;SDS011;50353;51.420;5.682;2024-02-21T08:05:14;9.88;;;2.63;;
64094;SDS011;50353;51.420;5.682;2024-02-21T08:07:39;4.85;;;2.65;;
64094;SDS011;50353;51.420;5.682;2024-02-21T08:10:05;6.72;;;2.97;;
64094;SDS011;50353;51.420;5.682;2024-02-21T08:12:33;7.03;;;2.65;;
64094;SDS011;50353;51.420;5.682;2024-02-21T08:14:58;4.32;;;2.05;;
64094;SDS011;50353;51.420;5.682;2024-02-21T08:17:23;5.80;;;2.50;;
64094;SDS011;50353;51.420;5.682;2024-02-21T08:19:49;7.97;;;3.30;;
64094;SDS011;50353;51.420;5.682;2024-02-21T08:22:14;6.47;;;2.72;;
64094;SDS011;50353;51.420;5.682;2024-02-21T08:24:40;2.38;;;1.63;;
64094;SDS011;50353;51.420;5.682;2024-02-21T08:27:05;4.40;;;2.10;;
64094;SDS011;50353;51.420;5.682;2024-02-21T08:29:31;7.82;;;2.97;;
64094;SDS011;50353;51.420;5.682;2024-02-21T08:31:56;5.43;;;2.60;;
64094;SDS011;50353;51.420;5.682;2024-02-21T08:34:22;5.50;;;2.50;;
64094;SDS011;50353;51.420;5.682;2024-02-21T08:36:47;4.68;;;2.28;;
64094;SDS011;50353;51.420;5.682;2024-02-21T08:39:12;8.43;;;2.33;;
64094;SDS011;50353;51.420;5.682;2024-02-21T08:41:41;6.55;;;2.50;;
64094;SDS011;50353;51.420;5.682;2024-02-21T08:44:07;2.40;;;1.10;;
64094;SDS011;50353;51.420;5.682;2024-02-21T08:46:33;7.30;;;2.53;;
64094;SDS011;50353;51.420;5.682;2024-02-21T08:48:58;5.93;;;2.72;;
64094;SDS011;50353;51.420;5.682;2024-02-21T08:51:24;6.28;;;2.47;;
64094;SDS011;50353;51.420;5.682;2024-02-21T08:53:50;6.72;;;4.43;;
64094;SDS011;50353;51.420;5.682;2024-02-21T08:56:15;10.77;;;2.80;;
64094;SDS011;50353;51.420;5.682;2024-02-21T08:58:41;3.92;;;2.40;;
64094;SDS011;50353;51.420;5.682;2024-02-21T09:01:07;6.53;;;2.90;;
64094;SDS011;50353;51.420;5.682;2024-02-21T09:03:36;6.57;;;2.83;;
64094;SDS011;50353;51.420;5.682;2024-02-21T09:06:02;8.65;;;3.30;;
64094;SDS011;50353;51.420;5.682;2024-02-21T09:08:27;7.82;;;3.05;;
64094;SDS011;50353;51.420;5.682;2024-02-21T09:10:53;4.78;;;2.55;;
64094;SDS011;50353;51.420;5.682;2024-02-21T09:13:18;5.72;;;2.83;;
64094;SDS011;50353;51.420;5.682;2024-02-21T09:15:44;6.10;;;2.92;;
64094;SDS011;50353;51.420;5.682;2024-02-21T09:18:10;9.95;;;4.25;;
64094;SDS011;50353;51.420;5.682;2024-02-21T09:20:35;6.70;;;3.30;;
64094;SDS011;50353;51.420;5.682;2024-02-21T09:23:00;9.68;;;3.45;;
64094;SDS011;50353;51.420;5.682;2024-02-21T09:25:26;6.88;;;2.53;;
64094;SDS011;50353;51.420;5.682;2024-02-21T09:27:53;5.18;;;3.47;;
64094;SDS011;50353;51.420;5.682;2024-02-21T09:30:19;6.43;;;2.83;;
64094;SDS011;50353;51.420;5.682;2024-02-21T09:32:45;6.80;;;2.85;;
64094;SDS011;50353;51.420;5.682;2024-02-21T09:35:11;6.80;;;3.47;;
64094;SDS011;50353;51.420;5.682;2024-02-21T09:37:37;4.85;;;1.42;;
64094;SDS011;50353;51.420;5.682;2024-02-21T09:40:05;8.30;;;3.15;;
64094;SDS011;50353;51.420;5.682;2024-02-21T09:42:38;6.60;;;2.78;;
64094;SDS011;50353;51.420;5.682;2024-02-21T09:45:07;10.10;;;2.63;;
64094;SDS011;50353;51.420;5.682;2024-02-21T09:47:55;7.03;;;2.05;;
64094;SDS011;50353;51.420;5.682;2024-02-21T09:50:24;5.05;;;2.42;;
64094;SDS011;50353;51.420;5.682;2024-02-21T09:52:52;2.22;;;1.65;;
64094;SDS011;50353;51.420;5.682;2024-02-21T10:00:11;4.95;;;2.17;;
64094;SDS011;50353;51.420;5.682;2024-02-21T10:02:38;10.48;;;4.28;;
64094;SDS011;50353;51.420;5.682;2024-02-21T10:05:04;7.28;;;2.50;;
64094;SDS011;50353;51.420;5.682;2024-02-21T10:07:33;4.72;;;1.63;;
64094;SDS011;50353;51.420;5.682;2024-02-21T10:10:05;4.32;;;2.25;;
64094;SDS011;50353;51.420;5.682;2024-02-21T10:12:31;8.52;;;2.63;;
64094;SDS011;50353;51.420;5.682;2024-02-21T10:15:03;6.55;;;2.47;;
64094;SDS011;50353;51.420;5.682;2024-02-21T10:17:29;4.85;;;2.13;;
64094;SDS011;50353;51.420;5.682;2024-02-21T10:19:55;5.55;;;2.85;;
64094;SDS011;50353;51.420;5.682;2024-02-21T10:22:20;6.68;;;2.38;;
64094;SDS011;50353;51.420;5.682;2024-02-21T10:24:46;7.13;;;2.55;;
64094;SDS011;50353;51.420;5.682;2024-02-21T10:27:11;8.00;;;2.35;;
64094;SDS011;50353;51.420;5.682;2024-02-21T10:29:37;4.75;;;2.35;;
64094;SDS011;50353;51.420;5.682;2024-02-21T10:32:07;5.82;;;2.50;;
64094;SDS011;50353;51.420;5.682;2024-02-21T10:34:36;2.67;;;1.45;;
64094;SDS011;50353;51.420;5.682;2024-02-21T10:37:05;5.20;;;2.17;;
64094;SDS011;50353;51.420;5.682;2024-02-21T10:39:32;6.47;;;2.28;;
64094;SDS011;50353;51.420;5.682;2024-02-21T10:41:59;3.72;;;2.10;;
64094;SDS011;50353;51.420;5.682;2024-02-21T10:44:29;5.10;;;2.53;;
64094;SDS011;50353;51.420;5.682;2024-02-21T10:46:58;5.30;;;2.65;;
64094;SDS011;50353;51.420;5.682;2024-02-21T10:49:25;3.65;;;1.80;;
64094;SDS011;50353;51.420;5.682;2024-02-21T10:52:00;5.55;;;2.63;;
64094;SDS011;50353;51.420;5.682;2024-02-21T10:54:44;9.25;;;2.10;;
64094;SDS011;50353;51.420;5.682;2024-02-21T10:57:15;6.45;;;2.83;;
64094;SDS011;50353;51.420;5.682;2024-02-21T10:59:41;7.05;;;2.78;;
64094;SDS011;50353;51.420;5.682;2024-02-21T11:02:09;4.63;;;2.25;;
64094;SDS011;50353;51.420;5.682;2024-02-21T11:04:35;5.60;;;2.10;;
64094;SDS011;50353;51.420;5.682;2024-02-21T11:07:03;7.30;;;2.08;;
64094;SDS011;50353;51.420;5.682;2024-02-21T11:09:30;4.68;;;1.77;;
64094;SDS011;50353;51.420;5.682;2024-02-21T11:12:02;6.00;;;2.03;;
64094;SDS011;50353;51.420;5.682;2024-02-21T11:14:31;5.05;;;2.30;;
64094;SDS011;50353;51.420;5.682;2024-02-21T11:16:57;6.10;;;2.33;;
64094;SDS011;50353;51.420;5.682;2024-02-21T11:19:27;8.43;;;2.75;;
64094;SDS011;50353;51.420;5.682;2024-02-21T11:21:54;3.78;;;1.65;;
64094;SDS011;50353;51.420;5.682;2024-02-21T11:24:27;6.85;;;2.20;;
64094;SDS011;50353;51.420;5.682;2024-02-21T11:27:41;6.43;;;2.65;;
64094;SDS011;50353;51.420;5.682;2024-02-21T11:29:46;5.35;;;1.90;;
64094;SDS011;50353;51.420;5.682;2024-02-21T11:32:14;4.05;;;1.80;;
64094;SDS011;50353;51.420;5.682;2024-02-21T11:34:40;3.55;;;1.38;;
64094;SDS011;50353;51.420;5.682;2024-02-21T11:37:15;7.22;;;1.98;;
64094;SDS011;50353;51.420;5.682;2024-02-21T11:39:41;3.33;;;1.05;;
64094;SDS011;50353;51.420;5.682;2024-02-21T11:42:07;7.53;;;2.15;;
64094;SDS011;50353;51.420;5.682;2024-02-21T11:44:35;6.75;;;2.33;;
64094;SDS011;50353;51.420;5.682;2024-02-21T11:47:09;18.63;;;9.50;;
64094;SDS011;50353;51.420;5.682;2024-02-21T11:49:38;6.15;;;2.03;;
64094;SDS011;50353;51.420;5.682;2024-02-21T11:52:07;5.95;;;2.28;;
64094;SDS011;50353;51.420;5.682;2024-02-21T11:54:33;6.88;;;2.22;;
64094;SDS011;50353;51.420;5.682;2024-02-21T11:56:59;3.92;;;1.90;;
64094;SDS011;50353;51.420;5.682;2024-02-21T11:59:26;4.55;;;1.95;;
64094;SDS011;50353;51.420;5.682;2024-02-21T12:01:52;4.88;;;2.00;;
64094;SDS011;50353;51.420;5.682;2024-02-21T12:04:18;3.45;;;1.50;;
64094;SDS011;50353;51.420;5.682;2024-02-21T12:06:46;6.05;;;2.20;;
64094;SDS011;50353;51.420;5.682;2024-02-21T12:09:15;3.90;;;1.58;;
64094;SDS011;50353;51.420;5.682;2024-02-21T12:11:43;9.13;;;2.58;;
64094;SDS011;50353;51.420;5.682;2024-02-21T12:14:09;8.20;;;2.50;;
64094;SDS011;50353;51.420;5.682;2024-02-21T12:16:36;7.70;;;1.88;;
64094;SDS011;50353;51.420;5.682;2024-02-21T12:19:04;5.70;;;1.75;;
64094;SDS011;50353;51.420;5.682;2024-02-21T12:21:31;6.68;;;1.60;;
64094;SDS011;50353;51.420;5.682;2024-02-21T12:23:59;6.30;;;1.63;;
64094;SDS011;50353;51.420;5.682;2024-02-21T12:26:25;5.38;;;1.90;;
64094;SDS011;50353;51.420;5.682;2024-02-21T12:28:52;4.00;;;2.10;;
64094;SDS011;50353;51.420;5.682;2024-02-21T12:31:18;6.78;;;2.30;;
64094;SDS011;50353;51.420;5.682;2024-02-21T12:33:44;2.20;;;1.75;;
64094;SDS011;50353;51.420;5.682;2024-02-21T12:36:09;4.50;;;2.30;;
64094;SDS011;50353;51.420;5.682;2024-02-21T12:38:35;8.98;;;2.10;;
64094;SDS011;50353;51.420;5.682;2024-02-21T12:41:01;4.65;;;2.10;;
64094;SDS011;50353;51.420;5.682;2024-02-21T12:43:26;5.35;;;2.08;;
64094;SDS011;50353;51.420;5.682;2024-02-21T12:45:52;4.03;;;1.55;;
64094;SDS011;50353;51.420;5.682;2024-02-21T12:48:18;6.60;;;2.15;;
64094;SDS011;50353;51.420;5.682;2024-02-21T12:50:50;3.67;;;1.95;;
64094;SDS011;50353;51.420;5.682;2024-02-21T12:53:21;4.18;;;1.85;;
64094;SDS011;50353;51.420;5.682;2024-02-21T12:55:48;4.45;;;2.20;;
64094;SDS011;50353;51.420;5.682;2024-02-21T12:58:13;5.65;;;1.92;;
64094;SDS011;50353;51.420;5.682;2024-02-21T13:00:40;6.78;;;2.40;;
64094;SDS011;50353;51.420;5.682;2024-02-21T13:03:06;3.42;;;1.10;;
64094;SDS011;50353;51.420;5.682;2024-02-21T13:05:32;5.03;;;1.98;;
64094;SDS011;50353;51.420;5.682;2024-02-21T13:07:59;8.82;;;1.80;;
64094;SDS011;50353;51.420;5.682;2024-02-21T13:10:24;4.50;;;1.40;;
64094;SDS011;50353;51.420;5.682;2024-02-21T13:12:50;2.97;;;1.20;;
64094;SDS011;50353;51.420;5.682;2024-02-21T13:15:16;5.10;;;1.98;;
64094;SDS011;50353;51.420;5.682;2024-02-21T13:17:45;5.50;;;1.92;;
64094;SDS011;50353;51.420;5.682;2024-02-21T13:20:11;3.17;;;1.45;;
64094;SDS011;50353;51.420;5.682;2024-02-21T13:22:37;3.08;;;1.40;;
64094;SDS011;50353;51.420;5.682;2024-02-21T13:25:03;4.10;;;1.52;;
64094;SDS011;50353;51.420;5.682;2024-02-21T13:27:30;5.28;;;1.30;;
64094;SDS011;50353;51.420;5.682;2024-02-21T13:29:55;7.25;;;2.15;;
64094;SDS011;50353;51.420;5.682;2024-02-21T13:32:21;6.05;;;1.52;;
64094;SDS011;50353;51.420;5.682;2024-02-21T13:34:46;4.63;;;1.83;;
64094;SDS011;50353;51.420;5.682;2024-02-21T13:37:11;8.00;;;2.00;;
64094;SDS011;50353;51.420;5.682;2024-02-21T13:39:38;1.65;;;0.98;;
64094;SDS011;50353;51.420;5.682;2024-02-21T13:42:05;2.25;;;0.80;;
64094;SDS011;50353;51.420;5.682;2024-02-21T13:44:31;3.45;;;1.17;;
64094;SDS011;50353;51.420;5.682;2024-02-21T13:46:57;3.65;;;1.33;;
64094;SDS011;50353;51.420;5.682;2024-02-21T13:49:22;4.28;;;1.25;;
64094;SDS011;50353;51.420;5.682;2024-02-21T13:51:48;1.77;;;1.10;;
64094;SDS011;50353;51.420;5.682;2024-02-21T13:54:13;5.25;;;1.80;;
64094;SDS011;50353;51.420;5.682;2024-02-21T13:56:42;3.90;;;1.50;;
64094;SDS011;50353;51.420;5.682;2024-02-21T13:59:08;3.15;;;1.40;;
64094;SDS011;50353;51.420;5.682;2024-02-21T14:01:34;3.90;;;1.45;;
64094;SDS011;50353;51.420;5.682;2024-02-21T14:04:00;3.17;;;1.33;;
64094;SDS011;50353;51.420;5.682;2024-02-21T14:06:26;3.95;;;1.40;;
64094;SDS011;50353;51.420;5.682;2024-02-21T14:08:52;5.22;;;1.75;;
64094;SDS011;50353;51.420;5.682;2024-02-21T14:11:17;2.58;;;0.93;;
64094;SDS011;50353;51.420;5.682;2024-02-21T14:13:43;3.08;;;1.42;;
64094;SDS011;50353;51.420;5.682;2024-02-21T14:16:11;4.68;;;1.38;;
64094;SDS011;50353;51.420;5.682;2024-02-21T14:18:38;3.15;;;1.23;;
64094;SDS011;50353;51.420;5.682;2024-02-21T14:21:12;3.78;;;1.70;;
64094;SDS011;50353;51.420;5.682;2024-02-21T14:23:38;5.10;;;1.60;;
64094;SDS011;50353;51.420;5.682;2024-02-21T14:26:04;13.20;;;4.35;;
64094;SDS011;50353;51.420;5.682;2024-02-21T14:28:29;5.47;;;1.40;;
64094;SDS011;50353;51.420;5.682;2024-02-21T14:30:55;4.53;;;1.83;;
64094;SDS011;50353;51.420;5.682;2024-02-21T14:33:23;4.72;;;1.52;;
64094;SDS011;50353;51.420;5.682;2024-02-21T14:35:50;3.83;;;1.92;;
64094;SDS011;50353;51.420;5.682;2024-02-21T14:38:16;3.67;;;1.23;;
64094;SDS011;50353;51.420;5.682;2024-02-21T14:40:42;2.33;;;0.93;;
64094;SDS011;50353;51.420;5.682;2024-02-21T14:43:08;5.65;;;1.33;;
64094;SDS011;50353;51.420;5.682;2024-02-21T14:45:33;3.25;;;1.10;;
64094;SDS011;50353;51.420;5.682;2024-02-21T14:47:59;5.72;;;1.30;;
64094;SDS011;50353;51.420;5.682;2024-02-21T14:50:24;6.05;;;1.77;;
64094;SDS011;50353;51.420;5.682;2024-02-21T14:52:50;2.10;;;0.73;;